sensor_id;sensor_type;location;lat;lon;timestamp;pressure;altitude;pressure_sealevel;temperature
40624;BMP280;26325;48.594;11.650;2023-08-06T00:02:14;95891.94;;;16.20
40624;BMP280;26325;48.594;11.650;2023-08-06T00:04:42;95894.94;;;16.40
40624;BMP280;26325;48.594;11.650;2023-08-06T00:07:07;95900.50;;;16.47
40624;BMP280;26325;48.594;11.650;2023-08-06T00:09:33;95898.97;;;16.20
40624;BMP280;26325;48.594;11.650;2023-08-06T00:11:58;95898.78;;;16.17
40624;BMP280;26325;48.594;11.650;2023-08-06T00:14:24;95904.47;;;16.05
40624;BMP280;26325;48.594;11.650;2023-08-06T00:16:54;95905.97;;;15.80
40624;BMP280;26325;48.594;11.650;2023-08-06T00:19:21;95912.19;;;15.66
40624;BMP280;26325;48.594;11.650;2023-08-06T00:21:47;95912.28;;;15.74
40624;BMP280;26325;48.594;11.650;2023-08-06T00:24:12;95914.50;;;15.67
40624;BMP280;26325;48.594;11.650;2023-08-06T00:26:38;95909.84;;;15.51
40624;BMP280;26325;48.594;11.650;2023-08-06T00:29:03;95909.28;;;15.67
40624;BMP280;26325;48.594;11.650;2023-08-06T00:31:29;95903.34;;;15.49
40624;BMP280;26325;48.594;11.650;2023-08-06T00:33:54;95908.28;;;15.50
40624;BMP280;26325;48.594;11.650;2023-08-06T00:36:20;95909.47;;;15.58
40624;BMP280;26325;48.594;11.650;2023-08-06T00:38:45;95909.06;;;15.51
40624;BMP280;26325;48.594;11.650;2023-08-06T00:41:10;95918.09;;;15.84
40624;BMP280;26325;48.594;11.650;2023-08-06T00:43:39;95923.50;;;15.88
40624;BMP280;26325;48.594;11.650;2023-08-06T00:46:05;95921.91;;;15.61
40624;BMP280;26325;48.594;11.650;2023-08-06T00:48:31;95918.53;;;15.60
40624;BMP280;26325;48.594;11.650;2023-08-06T00:50:57;95904.50;;;15.43
40624;BMP280;26325;48.594;11.650;2023-08-06T00:53:25;95900.47;;;15.50
40624;BMP280;26325;48.594;11.650;2023-08-06T00:55:50;95906.84;;;15.58
40624;BMP280;26325;48.594;11.650;2023-08-06T00:58:16;95907.13;;;15.43
40624;BMP280;26325;48.594;11.650;2023-08-06T01:00:41;95910.47;;;15.43
40624;BMP280;26325;48.594;11.650;2023-08-06T01:03:07;95897.34;;;15.35
40624;BMP280;26325;48.594;11.650;2023-08-06T01:05:33;95893.44;;;15.20
40624;BMP280;26325;48.594;11.650;2023-08-06T01:08:20;95884.00;;;15.24
40624;BMP280;26325;48.594;11.650;2023-08-06T01:11:07;95888.44;;;15.23
40624;BMP280;26325;48.594;11.650;2023-08-06T01:16:17;95891.81;;;15.24
40624;BMP280;26325;48.594;11.650;2023-08-06T01:18:42;95880.56;;;15.28
40624;BMP280;26325;48.594;11.650;2023-08-06T01:21:15;95879.59;;;15.24
40624;BMP280;26325;48.594;11.650;2023-08-06T01:23:40;95880.50;;;15.15
40624;BMP280;26325;48.594;11.650;2023-08-06T01:31:31;95893.72;;;15.49
40624;BMP280;26325;48.594;11.650;2023-08-06T01:33:59;95898.63;;;15.38
40624;BMP280;26325;48.594;11.650;2023-08-06T01:36:26;95879.47;;;15.16
40624;BMP280;26325;48.594;11.650;2023-08-06T01:38:54;95884.75;;;15.11
40624;BMP280;26325;48.594;11.650;2023-08-06T01:41:19;95875.34;;;14.97
40624;BMP280;26325;48.594;11.650;2023-08-06T01:43:45;95877.00;;;15.06
40624;BMP280;26325;48.594;11.650;2023-08-06T01:46:10;95875.75;;;15.22
40624;BMP280;26325;48.594;11.650;2023-08-06T01:48:36;95871.69;;;15.47
40624;BMP280;26325;48.594;11.650;2023-08-06T01:51:04;95871.91;;;15.32
40624;BMP280;26325;48.594;11.650;2023-08-06T01:53:30;95860.34;;;15.07
40624;BMP280;26325;48.594;11.650;2023-08-06T01:55:57;95858.63;;;15.03
40624;BMP280;26325;48.594;11.650;2023-08-06T01:58:25;95857.69;;;15.12
40624;BMP280;26325;48.594;11.650;2023-08-06T02:00:50;95857.28;;;15.05
40624;BMP280;26325;48.594;11.650;2023-08-06T02:03:16;95855.59;;;15.14
40624;BMP280;26325;48.594;11.650;2023-08-06T02:05:41;95853.25;;;15.12
40624;BMP280;26325;48.594;11.650;2023-08-06T02:08:07;95853.31;;;15.07
40624;BMP280;26325;48.594;11.650;2023-08-06T02:10:32;95847.34;;;15.07
40624;BMP280;26325;48.594;11.650;2023-08-06T02:12:58;95844.09;;;15.15
40624;BMP280;26325;48.594;11.650;2023-08-06T02:15:23;95845.88;;;15.32
40624;BMP280;26325;48.594;11.650;2023-08-06T02:17:49;95855.53;;;15.32
40624;BMP280;26325;48.594;11.650;2023-08-06T02:20:14;95851.97;;;15.41
40624;BMP280;26325;48.594;11.650;2023-08-06T02:22:40;95859.22;;;15.44
40624;BMP280;26325;48.594;11.650;2023-08-06T02:25:05;95845.66;;;15.16
40624;BMP280;26325;48.594;11.650;2023-08-06T02:27:31;95843.38;;;15.27
40624;BMP280;26325;48.594;11.650;2023-08-06T02:29:56;95836.59;;;15.44
40624;BMP280;26325;48.594;11.650;2023-08-06T02:32:22;95848.75;;;15.18
40624;BMP280;26325;48.594;11.650;2023-08-06T02:34:47;95844.88;;;15.15
40624;BMP280;26325;48.594;11.650;2023-08-06T02:37:12;95843.91;;;15.11
40624;BMP280;26325;48.594;11.650;2023-08-06T02:39:38;95827.78;;;15.27
40624;BMP280;26325;48.594;11.650;2023-08-06T02:42:06;95839.72;;;15.28
40624;BMP280;26325;48.594;11.650;2023-08-06T02:44:32;95833.53;;;15.24
40624;BMP280;26325;48.594;11.650;2023-08-06T02:46:59;95834.25;;;15.30
40624;BMP280;26325;48.594;11.650;2023-08-06T02:49:24;95827.38;;;15.21
40624;BMP280;26325;48.594;11.650;2023-08-06T02:51:50;95825.13;;;15.45
40624;BMP280;26325;48.594;11.650;2023-08-06T02:54:15;95824.03;;;15.33
40624;BMP280;26325;48.594;11.650;2023-08-06T02:56:43;95819.31;;;15.22
40624;BMP280;26325;48.594;11.650;2023-08-06T02:59:10;95816.00;;;15.17
40624;BMP280;26325;48.594;11.650;2023-08-06T03:01:35;95804.53;;;15.18
40624;BMP280;26325;48.594;11.650;2023-08-06T03:04:01;95803.59;;;15.14
40624;BMP280;26325;48.594;11.650;2023-08-06T03:06:29;95802.09;;;15.08
40624;BMP280;26325;48.594;11.650;2023-08-06T03:08:54;95780.81;;;15.06
40624;BMP280;26325;48.594;11.650;2023-08-06T03:11:27;95782.09;;;14.90
40624;BMP280;26325;48.594;11.650;2023-08-06T03:13:52;95763.09;;;14.90
40624;BMP280;26325;48.594;11.650;2023-08-06T03:16:20;95756.22;;;14.99
40624;BMP280;26325;48.594;11.650;2023-08-06T03:18:46;95762.31;;;15.07
40624;BMP280;26325;48.594;11.650;2023-08-06T03:21:19;95746.59;;;14.68
40624;BMP280;26325;48.594;11.650;2023-08-06T03:23:54;95749.59;;;14.75
40624;BMP280;26325;48.594;11.650;2023-08-06T03:26:20;95775.09;;;14.73
40624;BMP280;26325;48.594;11.650;2023-08-06T03:28:49;95783.13;;;14.89
40624;BMP280;26325;48.594;11.650;2023-08-06T03:31:14;95783.78;;;14.82
40624;BMP280;26325;48.594;11.650;2023-08-06T03:33:41;95780.63;;;14.85
40624;BMP280;26325;48.594;11.650;2023-08-06T03:36:09;95790.16;;;15.07
40624;BMP280;26325;48.594;11.650;2023-08-06T03:38:34;95795.78;;;15.27
40624;BMP280;26325;48.594;11.650;2023-08-06T03:41:06;95791.66;;;15.26
40624;BMP280;26325;48.594;11.650;2023-08-06T03:43:31;95793.13;;;15.01
40624;BMP280;26325;48.594;11.650;2023-08-06T03:45:58;95785.09;;;14.97
40624;BMP280;26325;48.594;11.650;2023-08-06T03:48:26;95788.59;;;15.06
40624;BMP280;26325;48.594;11.650;2023-08-06T03:50:52;95771.69;;;14.90
40624;BMP280;26325;48.594;11.650;2023-08-06T03:53:17;95772.16;;;15.10
40624;BMP280;26325;48.594;11.650;2023-08-06T03:55:44;95774.31;;;15.22
40624;BMP280;26325;48.594;11.650;2023-08-06T03:58:12;95774.38;;;15.17
40624;BMP280;26325;48.594;11.650;2023-08-06T04:00:43;95763.69;;;15.05
40624;BMP280;26325;48.594;11.650;2023-08-06T04:03:10;95769.56;;;14.92
40624;BMP280;26325;48.594;11.650;2023-08-06T04:05:37;95777.97;;;15.21
40624;BMP280;26325;48.594;11.650;2023-08-06T04:08:05;95764.56;;;15.14
40624;BMP280;26325;48.594;11.650;2023-08-06T04:10:32;95774.00;;;15.23
40624;BMP280;26325;48.594;11.650;2023-08-06T04:12:59;95771.13;;;15.11
40624;BMP280;26325;48.594;11.650;2023-08-06T04:15:37;95779.91;;;14.97
40624;BMP280;26325;48.594;11.650;2023-08-06T04:18:07;95774.78;;;14.92
40624;BMP280;26325;48.594;11.650;2023-08-06T04:20:33;95785.53;;;15.04
40624;BMP280;26325;48.594;11.650;2023-08-06T04:23:05;95787.16;;;15.00
40624;BMP280;26325;48.594;11.650;2023-08-06T04:25:31;95779.91;;;14.97
40624;BMP280;26325;48.594;11.650;2023-08-06T04:27:56;95775.81;;;14.91
40624;BMP280;26325;48.594;11.650;2023-08-06T04:30:26;95777.81;;;14.99
40624;BMP280;26325;48.594;11.650;2023-08-06T04:32:56;95780.34;;;14.86
40624;BMP280;26325;48.594;11.650;2023-08-06T04:35:25;95777.44;;;14.56
40624;BMP280;26325;48.594;11.650;2023-08-06T04:37:50;95768.53;;;14.62
40624;BMP280;26325;48.594;11.650;2023-08-06T04:40:21;95776.75;;;14.82
40624;BMP280;26325;48.594;11.650;2023-08-06T04:42:46;95782.50;;;14.97
40624;BMP280;26325;48.594;11.650;2023-08-06T04:45:13;95782.44;;;15.02
40624;BMP280;26325;48.594;11.650;2023-08-06T04:47:38;95787.09;;;15.05
40624;BMP280;26325;48.594;11.650;2023-08-06T04:50:05;95785.78;;;15.21
40624;BMP280;26325;48.594;11.650;2023-08-06T04:52:31;95780.19;;;15.14
40624;BMP280;26325;48.594;11.650;2023-08-06T04:54:57;95788.31;;;15.52
40624;BMP280;26325;48.594;11.650;2023-08-06T04:57:22;95785.72;;;15.52
40624;BMP280;26325;48.594;11.650;2023-08-06T04:59:48;95795.94;;;15.62
40624;BMP280;26325;48.594;11.650;2023-08-06T05:02:16;95791.13;;;15.68
40624;BMP280;26325;48.594;11.650;2023-08-06T05:04:41;95791.41;;;15.80
40624;BMP280;26325;48.594;11.650;2023-08-06T05:07:07;95785.81;;;15.86
40624;BMP280;26325;48.594;11.650;2023-08-06T05:09:32;95791.78;;;15.87
40624;BMP280;26325;48.594;11.650;2023-08-06T05:12:00;95792.91;;;15.99
40624;BMP280;26325;48.594;11.650;2023-08-06T05:14:26;95789.81;;;15.97
40624;BMP280;26325;48.594;11.650;2023-08-06T05:16:51;95798.00;;;16.17
40624;BMP280;26325;48.594;11.650;2023-08-06T05:19:17;95790.63;;;16.19
40624;BMP280;26325;48.594;11.650;2023-08-06T05:21:42;95804.66;;;16.44
40624;BMP280;26325;48.594;11.650;2023-08-06T05:24:08;95801.16;;;16.62
40624;BMP280;26325;48.594;11.650;2023-08-06T05:26:33;95807.31;;;16.66
40624;BMP280;26325;48.594;11.650;2023-08-06T05:29:01;95808.75;;;16.72
40624;BMP280;26325;48.594;11.650;2023-08-06T05:31:27;95799.41;;;17.14
40624;BMP280;26325;48.594;11.650;2023-08-06T05:33:54;95804.53;;;16.97
40624;BMP280;26325;48.594;11.650;2023-08-06T05:36:19;95803.16;;;16.99
40624;BMP280;26325;48.594;11.650;2023-08-06T05:38:45;95800.97;;;17.15
40624;BMP280;26325;48.594;11.650;2023-08-06T05:41:10;95807.84;;;17.11
40624;BMP280;26325;48.594;11.650;2023-08-06T05:43:36;95810.84;;;16.83
40624;BMP280;26325;48.594;11.650;2023-08-06T05:46:01;95798.31;;;16.72
40624;BMP280;26325;48.594;11.650;2023-08-06T05:48:27;95796.97;;;16.74
40624;BMP280;26325;48.594;11.650;2023-08-06T05:50:53;95797.03;;;16.82
40624;BMP280;26325;48.594;11.650;2023-08-06T05:53:18;95794.53;;;16.77
40624;BMP280;26325;48.594;11.650;2023-08-06T05:55:44;95801.69;;;16.72
40624;BMP280;26325;48.594;11.650;2023-08-06T05:58:10;95801.91;;;16.62
40624;BMP280;26325;48.594;11.650;2023-08-06T06:00:35;95795.34;;;16.65
40624;BMP280;26325;48.594;11.650;2023-08-06T06:03:01;95805.00;;;16.64
40624;BMP280;26325;48.594;11.650;2023-08-06T06:05:27;95796.19;;;16.74
40624;BMP280;26325;48.594;11.650;2023-08-06T06:07:53;95788.59;;;16.64
40624;BMP280;26325;48.594;11.650;2023-08-06T06:10:18;95791.47;;;16.76
40624;BMP280;26325;48.594;11.650;2023-08-06T06:12:44;95801.69;;;16.72
40624;BMP280;26325;48.594;11.650;2023-08-06T06:15:09;95804.03;;;16.60
40624;BMP280;26325;48.594;11.650;2023-08-06T06:17:37;95805.38;;;16.71
40624;BMP280;26325;48.594;11.650;2023-08-06T06:20:02;95801.13;;;16.75
40624;BMP280;26325;48.594;11.650;2023-08-06T06:22:29;95799.63;;;16.82
40624;BMP280;26325;48.594;11.650;2023-08-06T06:24:55;95801.06;;;16.88
40624;BMP280;26325;48.594;11.650;2023-08-06T06:27:20;95804.09;;;17.03
40624;BMP280;26325;48.594;11.650;2023-08-06T06:29:48;95799.66;;;17.04
40624;BMP280;26325;48.594;11.650;2023-08-06T06:32:14;95801.63;;;16.98
40624;BMP280;26325;48.594;11.650;2023-08-06T06:34:39;95804.38;;;16.80
40624;BMP280;26325;48.594;11.650;2023-08-06T06:37:05;95795.34;;;16.65
40624;BMP280;26325;48.594;11.650;2023-08-06T06:39:30;95797.25;;;16.73
40624;BMP280;26325;48.594;11.650;2023-08-06T06:41:55;95806.34;;;16.62
40624;BMP280;26325;48.594;11.650;2023-08-06T06:44:23;95804.66;;;16.58
40624;BMP280;26325;48.594;11.650;2023-08-06T06:46:49;95796.31;;;16.69
40624;BMP280;26325;48.594;11.650;2023-08-06T06:49:14;95796.91;;;16.66
40624;BMP280;26325;48.594;11.650;2023-08-06T06:51:39;95793.72;;;16.69
40624;BMP280;26325;48.594;11.650;2023-08-06T06:54:05;95802.25;;;16.82
40624;BMP280;26325;48.594;11.650;2023-08-06T06:56:30;95786.25;;;16.76
40624;BMP280;26325;48.594;11.650;2023-08-06T06:58:56;95787.91;;;16.93
40624;BMP280;26325;48.594;11.650;2023-08-06T07:01:21;95789.34;;;16.99
40624;BMP280;26325;48.594;11.650;2023-08-06T07:03:47;95792.16;;;17.02
40624;BMP280;26325;48.594;11.650;2023-08-06T07:06:12;95789.41;;;17.07
40624;BMP280;26325;48.594;11.650;2023-08-06T07:08:41;95795.06;;;17.01
40624;BMP280;26325;48.594;11.650;2023-08-06T07:11:06;95773.81;;;17.16
40624;BMP280;26325;48.594;11.650;2023-08-06T07:13:33;95769.66;;;17.15
40624;BMP280;26325;48.594;11.650;2023-08-06T07:15:59;95771.16;;;17.29
40624;BMP280;26325;48.594;11.650;2023-08-06T07:18:24;95768.69;;;17.32
40624;BMP280;26325;48.594;11.650;2023-08-06T07:20:53;95769.72;;;17.53
40624;BMP280;26325;48.594;11.650;2023-08-06T07:23:23;95766.44;;;17.47
40624;BMP280;26325;48.594;11.650;2023-08-06T07:25:49;95764.66;;;17.56
40624;BMP280;26325;48.594;11.650;2023-08-06T07:28:15;95766.84;;;17.62
40624;BMP280;26325;48.594;11.650;2023-08-06T07:30:42;95764.50;;;17.91
40624;BMP280;26325;48.594;11.650;2023-08-06T07:33:07;95770.06;;;17.97
40624;BMP280;26325;48.594;11.650;2023-08-06T07:35:33;95776.53;;;17.62
40624;BMP280;26325;48.594;11.650;2023-08-06T07:37:59;95766.63;;;17.51
40624;BMP280;26325;48.594;11.650;2023-08-06T07:40:25;95772.13;;;17.79
40624;BMP280;26325;48.594;11.650;2023-08-06T07:42:50;95766.56;;;17.72
40624;BMP280;26325;48.594;11.650;2023-08-06T07:45:16;95766.28;;;17.82
40624;BMP280;26325;48.594;11.650;2023-08-06T07:47:43;95770.78;;;17.90
40624;BMP280;26325;48.594;11.650;2023-08-06T07:50:09;95771.88;;;17.89
40624;BMP280;26325;48.594;11.650;2023-08-06T07:52:35;95763.06;;;17.76
40624;BMP280;26325;48.594;11.650;2023-08-06T07:55:01;95763.22;;;17.80
40624;BMP280;26325;48.594;11.650;2023-08-06T07:57:32;95756.53;;;17.95
40624;BMP280;26325;48.594;11.650;2023-08-06T07:59:59;95764.09;;;18.05
40624;BMP280;26325;48.594;11.650;2023-08-06T08:02:25;95757.50;;;18.16
40624;BMP280;26325;48.594;11.650;2023-08-06T08:04:50;95759.53;;;18.52
40624;BMP280;26325;48.594;11.650;2023-08-06T08:07:16;95756.50;;;18.75
40624;BMP280;26325;48.594;11.650;2023-08-06T08:09:41;95758.94;;;18.96
40624;BMP280;26325;48.594;11.650;2023-08-06T08:12:07;95756.81;;;19.88
40624;BMP280;26325;48.594;11.650;2023-08-06T08:14:32;95751.19;;;20.74
40624;BMP280;26325;48.594;11.650;2023-08-06T08:17:02;95746.66;;;20.83
40624;BMP280;26325;48.594;11.650;2023-08-06T08:19:28;95746.38;;;21.16
40624;BMP280;26325;48.594;11.650;2023-08-06T08:21:54;95738.81;;;21.70
40624;BMP280;26325;48.594;11.650;2023-08-06T08:24:20;95734.41;;;21.07
40624;BMP280;26325;48.594;11.650;2023-08-06T08:26:51;95726.72;;;20.22
40624;BMP280;26325;48.594;11.650;2023-08-06T08:29:17;95733.34;;;19.71
40624;BMP280;26325;48.594;11.650;2023-08-06T08:31:42;95742.75;;;19.03
40624;BMP280;26325;48.594;11.650;2023-08-06T08:34:08;95741.41;;;18.64
40624;BMP280;26325;48.594;11.650;2023-08-06T08:36:34;95740.47;;;18.35
40624;BMP280;26325;48.594;11.650;2023-08-06T08:38:59;95748.91;;;18.24
40624;BMP280;26325;48.594;11.650;2023-08-06T08:41:27;95746.63;;;18.47
40624;BMP280;26325;48.594;11.650;2023-08-06T08:43:53;95737.72;;;18.89
40624;BMP280;26325;48.594;11.650;2023-08-06T08:46:21;95742.19;;;18.72
40624;BMP280;26325;48.594;11.650;2023-08-06T08:48:47;95747.09;;;18.66
40624;BMP280;26325;48.594;11.650;2023-08-06T08:51:15;95758.41;;;18.12
40624;BMP280;26325;48.594;11.650;2023-08-06T08:53:44;95758.28;;;18.41
40624;BMP280;26325;48.594;11.650;2023-08-06T08:56:11;95751.84;;;18.72
40624;BMP280;26325;48.594;11.650;2023-08-06T08:58:37;95741.22;;;19.55
40624;BMP280;26325;48.594;11.650;2023-08-06T09:01:02;95736.13;;;20.71
40624;BMP280;26325;48.594;11.650;2023-08-06T09:03:28;95736.13;;;21.35
40624;BMP280;26325;48.594;11.650;2023-08-06T09:05:54;95733.78;;;21.76
40624;BMP280;26325;48.594;11.650;2023-08-06T09:08:23;95738.47;;;21.48
40624;BMP280;26325;48.594;11.650;2023-08-06T09:10:49;95748.00;;;20.49
40624;BMP280;26325;48.594;11.650;2023-08-06T09:13:16;95743.88;;;20.20
40624;BMP280;26325;48.594;11.650;2023-08-06T09:15:41;95750.06;;;20.63
40624;BMP280;26325;48.594;11.650;2023-08-06T09:18:10;95750.00;;;20.52
40624;BMP280;26325;48.594;11.650;2023-08-06T09:20:38;95748.31;;;19.99
40624;BMP280;26325;48.594;11.650;2023-08-06T09:23:10;95752.72;;;20.07
40624;BMP280;26325;48.594;11.650;2023-08-06T09:25:38;95754.34;;;19.46
40624;BMP280;26325;48.594;11.650;2023-08-06T09:28:04;95754.31;;;19.18
40624;BMP280;26325;48.594;11.650;2023-08-06T09:30:37;95754.03;;;18.87
40624;BMP280;26325;48.594;11.650;2023-08-06T09:33:08;95769.22;;;18.60
40624;BMP280;26325;48.594;11.650;2023-08-06T09:35:48;95773.22;;;18.41
40624;BMP280;26325;48.594;11.650;2023-08-06T09:38:13;95759.69;;;18.47
40624;BMP280;26325;48.594;11.650;2023-08-06T09:40:39;95761.84;;;18.37
40624;BMP280;26325;48.594;11.650;2023-08-06T09:43:05;95763.09;;;18.56
40624;BMP280;26325;48.594;11.650;2023-08-06T09:45:33;95750.78;;;18.48
40624;BMP280;26325;48.594;11.650;2023-08-06T09:48:05;95753.97;;;19.11
40624;BMP280;26325;48.594;11.650;2023-08-06T09:50:34;95746.44;;;20.28
40624;BMP280;26325;48.594;11.650;2023-08-06T09:53:07;95740.91;;;21.21
40624;BMP280;26325;48.594;11.650;2023-08-06T09:55:33;95743.84;;;20.48
40624;BMP280;26325;48.594;11.650;2023-08-06T09:57:59;95735.66;;;21.21
40624;BMP280;26325;48.594;11.650;2023-08-06T10:00:25;95749.66;;;20.73
40624;BMP280;26325;48.594;11.650;2023-08-06T10:02:52;95742.94;;;19.96
40624;BMP280;26325;48.594;11.650;2023-08-06T10:05:20;95770.72;;;19.35
40624;BMP280;26325;48.594;11.650;2023-08-06T10:07:46;95779.84;;;18.38
40624;BMP280;26325;48.594;11.650;2023-08-06T10:10:12;95756.03;;;17.85
40624;BMP280;26325;48.594;11.650;2023-08-06T10:12:40;95759.19;;;18.12
40624;BMP280;26325;48.594;11.650;2023-08-06T10:15:11;95755.91;;;17.52
40624;BMP280;26325;48.594;11.650;2023-08-06T10:17:39;95756.72;;;17.69
40624;BMP280;26325;48.594;11.650;2023-08-06T10:20:08;95757.09;;;18.39
40624;BMP280;26325;48.594;11.650;2023-08-06T10:22:34;95758.34;;;19.52
40624;BMP280;26325;48.594;11.650;2023-08-06T10:25:02;95746.00;;;20.66
40624;BMP280;26325;48.594;11.650;2023-08-06T10:27:33;95750.41;;;20.34
40624;BMP280;26325;48.594;11.650;2023-08-06T10:30:28;95756.72;;;19.84
40624;BMP280;26325;48.594;11.650;2023-08-06T10:32:55;95757.09;;;18.88
40624;BMP280;26325;48.594;11.650;2023-08-06T10:35:42;95755.69;;;19.08
40624;BMP280;26325;48.594;11.650;2023-08-06T10:38:14;95768.13;;;18.28
40624;BMP280;26325;48.594;11.650;2023-08-06T10:41:01;95765.50;;;17.81
40624;BMP280;26325;48.594;11.650;2023-08-06T10:43:34;95767.78;;;17.66
40624;BMP280;26325;48.594;11.650;2023-08-06T10:46:23;95764.31;;;17.49
40624;BMP280;26325;48.594;11.650;2023-08-06T10:48:48;95777.16;;;17.08
40624;BMP280;26325;48.594;11.650;2023-08-06T10:51:15;95783.13;;;17.08
40624;BMP280;26325;48.594;11.650;2023-08-06T10:53:48;95773.44;;;16.31
40624;BMP280;26325;48.594;11.650;2023-08-06T10:58:40;95767.91;;;15.98
40624;BMP280;26325;48.594;11.650;2023-08-06T11:01:07;95761.63;;;16.12
40624;BMP280;26325;48.594;11.650;2023-08-06T11:03:34;95772.03;;;16.25
40624;BMP280;26325;48.594;11.650;2023-08-06T11:06:00;95765.78;;;17.34
40624;BMP280;26325;48.594;11.650;2023-08-06T11:08:36;95768.31;;;18.39
40624;BMP280;26325;48.594;11.650;2023-08-06T11:11:15;95762.47;;;19.08
40624;BMP280;26325;48.594;11.650;2023-08-06T11:13:43;95773.97;;;19.24
40624;BMP280;26325;48.594;11.650;2023-08-06T11:16:13;95770.16;;;19.13
40624;BMP280;26325;48.594;11.650;2023-08-06T11:18:40;95761.91;;;19.56
40624;BMP280;26325;48.594;11.650;2023-08-06T11:21:07;95758.56;;;20.32
40624;BMP280;26325;48.594;11.650;2023-08-06T11:23:33;95767.50;;;20.40
40624;BMP280;26325;48.594;11.650;2023-08-06T11:25:59;95762.47;;;19.98
40624;BMP280;26325;48.594;11.650;2023-08-06T11:28:24;95757.94;;;19.42
40624;BMP280;26325;48.594;11.650;2023-08-06T11:30:50;95763.50;;;19.32
40624;BMP280;26325;48.594;11.650;2023-08-06T11:33:25;95751.09;;;18.71
40624;BMP280;26325;48.594;11.650;2023-08-06T11:35:55;95768.59;;;18.30
40624;BMP280;26325;48.594;11.650;2023-08-06T11:38:21;95765.94;;;18.05
40624;BMP280;26325;48.594;11.650;2023-08-06T11:40:59;95770.72;;;17.81
40624;BMP280;26325;48.594;11.650;2023-08-06T11:43:25;95775.06;;;17.48
40624;BMP280;26325;48.594;11.650;2023-08-06T11:45:54;95777.84;;;17.00
40624;BMP280;26325;48.594;11.650;2023-08-06T11:48:20;95770.00;;;17.21
40624;BMP280;26325;48.594;11.650;2023-08-06T11:50:46;95786.84;;;17.16
40624;BMP280;26325;48.594;11.650;2023-08-06T11:53:13;95798.59;;;17.05
40624;BMP280;26325;48.594;11.650;2023-08-06T11:55:39;95798.16;;;17.03
40624;BMP280;26325;48.594;11.650;2023-08-06T11:58:05;95798.59;;;17.26
40624;BMP280;26325;48.594;11.650;2023-08-06T12:00:31;95786.19;;;17.61
40624;BMP280;26325;48.594;11.650;2023-08-06T12:02:57;95798.38;;;18.12
40624;BMP280;26325;48.594;11.650;2023-08-06T12:05:23;95794.56;;;18.26
40624;BMP280;26325;48.594;11.650;2023-08-06T12:07:51;95790.69;;;18.24
40624;BMP280;26325;48.594;11.650;2023-08-06T12:10:17;95800.34;;;18.86
40624;BMP280;26325;48.594;11.650;2023-08-06T12:12:45;95783.97;;;19.22
40624;BMP280;26325;48.594;11.650;2023-08-06T12:15:10;95774.44;;;19.34
40624;BMP280;26325;48.594;11.650;2023-08-06T12:17:36;95794.50;;;18.89
40624;BMP280;26325;48.594;11.650;2023-08-06T12:20:03;95784.34;;;18.88
40624;BMP280;26325;48.594;11.650;2023-08-06T12:22:29;95780.34;;;18.90
40624;BMP280;26325;48.594;11.650;2023-08-06T12:25:00;95774.81;;;18.91
40624;BMP280;26325;48.594;11.650;2023-08-06T12:27:26;95784.78;;;19.14
40624;BMP280;26325;48.594;11.650;2023-08-06T12:29:52;95774.47;;;18.85
40624;BMP280;26325;48.594;11.650;2023-08-06T12:32:17;95781.56;;;18.84
40624;BMP280;26325;48.594;11.650;2023-08-06T12:34:42;95777.56;;;18.78
40624;BMP280;26325;48.594;11.650;2023-08-06T12:37:08;95752.94;;;18.88
40624;BMP280;26325;48.594;11.650;2023-08-06T12:39:35;95754.91;;;19.15
40624;BMP280;26325;48.594;11.650;2023-08-06T12:42:01;95767.06;;;19.73
40624;BMP280;26325;48.594;11.650;2023-08-06T12:44:27;95749.44;;;19.90
40624;BMP280;26325;48.594;11.650;2023-08-06T12:46:54;95748.66;;;19.45
40624;BMP280;26325;48.594;11.650;2023-08-06T12:49:21;95766.09;;;19.41
40624;BMP280;26325;48.594;11.650;2023-08-06T12:51:50;95761.94;;;19.40
40624;BMP280;26325;48.594;11.650;2023-08-06T12:54:20;95759.09;;;19.00
40624;BMP280;26325;48.594;11.650;2023-08-06T12:56:46;95770.03;;;18.77
40624;BMP280;26325;48.594;11.650;2023-08-06T12:59:14;95773.06;;;18.62
40624;BMP280;26325;48.594;11.650;2023-08-06T13:01:40;95771.06;;;18.68
40624;BMP280;26325;48.594;11.650;2023-08-06T13:04:05;95802.03;;;18.74
40624;BMP280;26325;48.594;11.650;2023-08-06T13:06:31;95787.81;;;18.33
40624;BMP280;26325;48.594;11.650;2023-08-06T13:09:01;95788.69;;;18.12
40624;BMP280;26325;48.594;11.650;2023-08-06T13:11:27;95789.28;;;17.63
40624;BMP280;26325;48.594;11.650;2023-08-06T13:13:53;95786.66;;;17.34
40624;BMP280;26325;48.594;11.650;2023-08-06T13:16:27;95785.53;;;17.26
40624;BMP280;26325;48.594;11.650;2023-08-06T13:18:55;95811.22;;;17.33
40624;BMP280;26325;48.594;11.650;2023-08-06T13:21:35;95796.22;;;17.16
40624;BMP280;26325;48.594;11.650;2023-08-06T13:24:04;95779.41;;;17.31
40624;BMP280;26325;48.594;11.650;2023-08-06T13:26:30;95786.50;;;17.38
40624;BMP280;26325;48.594;11.650;2023-08-06T13:28:57;95796.69;;;17.18
40624;BMP280;26325;48.594;11.650;2023-08-06T13:31:24;95787.13;;;17.35
40624;BMP280;26325;48.594;11.650;2023-08-06T13:33:51;95796.06;;;17.43
40624;BMP280;26325;48.594;11.650;2023-08-06T13:36:17;95787.81;;;17.49
40624;BMP280;26325;48.594;11.650;2023-08-06T13:38:45;95791.47;;;17.78
40624;BMP280;26325;48.594;11.650;2023-08-06T13:41:10;95792.84;;;17.75
40624;BMP280;26325;48.594;11.650;2023-08-06T13:43:42;95807.25;;;17.73
40624;BMP280;26325;48.594;11.650;2023-08-06T13:46:32;95809.91;;;17.43
40624;BMP280;26325;48.594;11.650;2023-08-06T13:48:59;95813.47;;;17.04
40624;BMP280;26325;48.594;11.650;2023-08-06T13:51:29;95812.06;;;16.98
40624;BMP280;26325;48.594;11.650;2023-08-06T13:53:55;95821.63;;;17.03
40624;BMP280;26325;48.594;11.650;2023-08-06T13:56:22;95809.50;;;17.07
40624;BMP280;26325;48.594;11.650;2023-08-06T13:58:48;95809.69;;;17.10
40624;BMP280;26325;48.594;11.650;2023-08-06T14:01:13;95823.66;;;16.93
40624;BMP280;26325;48.594;11.650;2023-08-06T14:03:44;95866.72;;;16.90
40624;BMP280;26325;48.594;11.650;2023-08-06T14:06:10;95839.47;;;16.14
40624;BMP280;26325;48.594;11.650;2023-08-06T14:08:35;95845.03;;;15.81